Terminal Aerodrome Forecast
Issued by NWS

Home | Current Version | Previous Version | Text Only | Print | Product List | Glossary On
Versions: 1 2 3 4 5 6 7 8 9 10 11 12 13 14 15 16 17 18 19 20 21 22 23 24 25 26 27 28 29 30 31 32 33
000
FTUS45 KBOU 222358 AAA
TAFBJC
TAF AMD
KBJC 222358Z 2300/2324 28015G32KT P6SM FEW090 SCT120 BKN220
     FM230300 25014KT P6SM BKN220
     FM230500 30010KT P6SM SCT220
     FM231300 34008KT P6SM FEW060 SCT220
     FM231800 36008KT P6SM SCT070 SCT220
     FM232300 02009KT P6SM BKN050 BKN220=

USA.gov is the U.S. government's official web portal to all federal, state and local government web resources and services.